AR60 weather

NEA Baptist Hospital Heliport
Jonesboro, Arkansas, United States

Public forecast

Using degrees Fahrenheit for public forecast. Weather courtesy of forecast.io.

Closest aviation weather report (METAR) to NEA Baptist Hospital Heliport

Report is more than 6 hours old.

Closest report is Jonesboro Municipal Airport, 1.7 nm (3.2 km) NE. Retrieved 2020/03/28 23:53 UTC (2 months ago):

KJBR 282353Z AUTO RMK AO2 LTG DSNT E-S RAEMM SLPNO P0005 60018 10239 20217 PWINO FZRANO

Closest aviation forecast (TAF) to NEA Baptist Hospital Heliport

Closest forecast is Jonesboro Municipal Airport, 1.7 nm (3.2 km) NE. Retrieved 2020-06-04 00:27 UTC (2 hours ago):

TAF KJBR 032324Z 0400/0424 23008KT P6SM VCSH FEW045 SCT100 FM040900 23004KT P6SM -SHRA VCTS BKN030CB FM041300 21005KT P6SM BKN030 BKN100 FM042000 22008KT P6SM VCSH SCT030 BKN100 AMD NOT SKED